sensor_id;sensor_type;location;lat;lon;timestamp;temperature;humidity
41310;DHT22;27057;51.438;-0.010;2022-10-28T00:01:19;16.90;99.90
41310;DHT22;27057;51.438;-0.010;2022-10-28T00:03:55;16.90;99.90
41310;DHT22;27057;51.438;-0.010;2022-10-28T00:06:25;16.90;99.90
41310;DHT22;27057;51.438;-0.010;2022-10-28T00:08:53;16.90;99.90
41310;DHT22;27057;51.438;-0.010;2022-10-28T00:11:24;17.00;99.90
41310;DHT22;27057;51.438;-0.010;2022-10-28T00:13:53;16.90;99.90
41310;DHT22;27057;51.438;-0.010;2022-10-28T00:16:27;16.90;99.90
41310;DHT22;27057;51.438;-0.010;2022-10-28T00:18:55;16.90;99.90
41310;DHT22;27057;51.438;-0.010;2022-10-28T00:21:26;16.90;99.90
41310;DHT22;27057;51.438;-0.010;2022-10-28T00:23:54;16.80;99.90
41310;DHT22;27057;51.438;-0.010;2022-10-28T00:26:24;16.80;99.90
41310;DHT22;27057;51.438;-0.010;2022-10-28T00:28:53;16.80;99.90
41310;DHT22;27057;51.438;-0.010;2022-10-28T00:31:22;16.70;99.90
41310;DHT22;27057;51.438;-0.010;2022-10-28T00:36:20;16.70;99.90
41310;DHT22;27057;51.438;-0.010;2022-10-28T00:38:50;16.60;99.90
41310;DHT22;27057;51.438;-0.010;2022-10-28T00:43:51;16.60;99.90
41310;DHT22;27057;51.438;-0.010;2022-10-28T00:48:53;16.60;99.90
41310;DHT22;27057;51.438;-0.010;2022-10-28T00:51:22;16.60;99.90
41310;DHT22;27057;51.438;-0.010;2022-10-28T00:53:51;16.50;99.90
41310;DHT22;27057;51.438;-0.010;2022-10-28T00:56:19;16.50;99.90
41310;DHT22;27057;51.438;-0.010;2022-10-28T00:58:49;16.50;99.90
41310;DHT22;27057;51.438;-0.010;2022-10-28T01:01:17;16.50;99.90
41310;DHT22;27057;51.438;-0.010;2022-10-28T01:03:44;16.50;99.90
41310;DHT22;27057;51.438;-0.010;2022-10-28T01:06:13;16.50;99.90
41310;DHT22;27057;51.438;-0.010;2022-10-28T01:08:41;16.40;99.90
41310;DHT22;27057;51.438;-0.010;2022-10-28T01:19:55;16.40;99.90
41310;DHT22;27057;51.438;-0.010;2022-10-28T01:22:48;16.40;99.90
41310;DHT22;27057;51.438;-0.010;2022-10-28T01:31:17;16.40;99.90
41310;DHT22;27057;51.438;-0.010;2022-10-28T01:36:14;16.40;99.90
41310;DHT22;27057;51.438;-0.010;2022-10-28T01:38:49;16.40;99.90
41310;DHT22;27057;51.438;-0.010;2022-10-28T01:41:49;16.40;99.90
41310;DHT22;27057;51.438;-0.010;2022-10-28T01:47:08;16.30;99.90
41310;DHT22;27057;51.438;-0.010;2022-10-28T01:52:26;16.20;99.90
41310;DHT22;27057;51.438;-0.010;2022-10-28T01:55:10;16.30;99.90
41310;DHT22;27057;51.438;-0.010;2022-10-28T01:57:41;16.20;99.90
41310;DHT22;27057;51.438;-0.010;2022-10-28T02:00:09;16.20;99.90
41310;DHT22;27057;51.438;-0.010;2022-10-28T02:02:41;16.20;99.90
41310;DHT22;27057;51.438;-0.010;2022-10-28T02:05:38;16.20;99.90
41310;DHT22;27057;51.438;-0.010;2022-10-28T02:14:06;16.20;99.90
41310;DHT22;27057;51.438;-0.010;2022-10-28T02:22:13;16.10;99.90
41310;DHT22;27057;51.438;-0.010;2022-10-28T02:25:01;16.10;99.90
41310;DHT22;27057;51.438;-0.010;2022-10-28T02:30:05;16.00;99.90
41310;DHT22;27057;51.438;-0.010;2022-10-28T02:32:40;16.00;99.90
41310;DHT22;27057;51.438;-0.010;2022-10-28T02:35:18;16.00;99.90
41310;DHT22;27057;51.438;-0.010;2022-10-28T02:37:47;16.00;99.90
41310;DHT22;27057;51.438;-0.010;2022-10-28T02:40:21;16.00;99.90
41310;DHT22;27057;51.438;-0.010;2022-10-28T02:42:53;16.10;99.90
41310;DHT22;27057;51.438;-0.010;2022-10-28T02:45:26;15.90;99.90
41310;DHT22;27057;51.438;-0.010;2022-10-28T02:47:57;16.00;99.90
41310;DHT22;27057;51.438;-0.010;2022-10-28T02:50:37;16.10;99.90
41310;DHT22;27057;51.438;-0.010;2022-10-28T02:53:20;16.40;99.90
41310;DHT22;27057;51.438;-0.010;2022-10-28T02:55:53;16.00;99.90
41310;DHT22;27057;51.438;-0.010;2022-10-28T03:00:50;15.90;99.90
41310;DHT22;27057;51.438;-0.010;2022-10-28T03:05:45;15.90;99.90
41310;DHT22;27057;51.438;-0.010;2022-10-28T03:08:13;15.90;99.90
41310;DHT22;27057;51.438;-0.010;2022-10-28T03:10:40;15.80;99.90
41310;DHT22;27057;51.438;-0.010;2022-10-28T03:13:07;15.80;99.90
41310;DHT22;27057;51.438;-0.010;2022-10-28T03:15:34;15.50;99.90
41310;DHT22;27057;51.438;-0.010;2022-10-28T03:27:53;16.00;99.90
41310;DHT22;27057;51.438;-0.010;2022-10-28T03:35:15;15.60;99.90
41310;DHT22;27057;51.438;-0.010;2022-10-28T03:37:43;15.70;99.90
41310;DHT22;27057;51.438;-0.010;2022-10-28T03:40:11;15.60;99.90
41310;DHT22;27057;51.438;-0.010;2022-10-28T03:42:41;15.70;99.90
41310;DHT22;27057;51.438;-0.010;2022-10-28T03:45:09;15.60;99.90
41310;DHT22;27057;51.438;-0.010;2022-10-28T03:50:05;15.80;99.90
41310;DHT22;27057;51.438;-0.010;2022-10-28T03:52:32;15.70;99.90
41310;DHT22;27057;51.438;-0.010;2022-10-28T03:54:59;15.50;99.90
41310;DHT22;27057;51.438;-0.010;2022-10-28T03:57:31;15.30;99.90
41310;DHT22;27057;51.438;-0.010;2022-10-28T04:09:50;15.60;99.90
41310;DHT22;27057;51.438;-0.010;2022-10-28T04:12:17;15.70;99.90
41310;DHT22;27057;51.438;-0.010;2022-10-28T05:01:32;16.50;99.90
41310;DHT22;27057;51.438;-0.010;2022-10-28T05:03:59;16.50;99.90
41310;DHT22;27057;51.438;-0.010;2022-10-28T05:06:27;16.60;99.90
41310;DHT22;27057;51.438;-0.010;2022-10-28T05:13:49;16.70;99.90
41310;DHT22;27057;51.438;-0.010;2022-10-28T05:16:19;16.70;99.90
41310;DHT22;27057;51.438;-0.010;2022-10-28T05:18:46;16.70;99.90
41310;DHT22;27057;51.438;-0.010;2022-10-28T05:23:41;16.70;99.90
41310;DHT22;27057;51.438;-0.010;2022-10-28T05:28:36;16.70;99.90
41310;DHT22;27057;51.438;-0.010;2022-10-28T05:38:27;16.80;99.90
41310;DHT22;27057;51.438;-0.010;2022-10-28T05:40:55;16.80;99.90
41310;DHT22;27057;51.438;-0.010;2022-10-28T05:43:22;16.90;99.90
41310;DHT22;27057;51.438;-0.010;2022-10-28T05:45:56;16.90;99.90
41310;DHT22;27057;51.438;-0.010;2022-10-28T05:48:24;17.00;99.90
41310;DHT22;27057;51.438;-0.010;2022-10-28T05:50:51;17.00;99.90
41310;DHT22;27057;51.438;-0.010;2022-10-28T05:53:18;16.80;99.90
41310;DHT22;27057;51.438;-0.010;2022-10-28T05:55:46;17.00;99.90
41310;DHT22;27057;51.438;-0.010;2022-10-28T05:58:14;17.00;99.90
41310;DHT22;27057;51.438;-0.010;2022-10-28T06:00:42;17.00;99.90
41310;DHT22;27057;51.438;-0.010;2022-10-28T06:03:11;16.90;99.90
41310;DHT22;27057;51.438;-0.010;2022-10-28T06:05:41;17.00;99.90
41310;DHT22;27057;51.438;-0.010;2022-10-28T06:08:10;17.00;99.90
41310;DHT22;27057;51.438;-0.010;2022-10-28T06:10:39;17.00;99.90
41310;DHT22;27057;51.438;-0.010;2022-10-28T06:13:07;17.00;99.90
41310;DHT22;27057;51.438;-0.010;2022-10-28T06:15:35;16.90;99.90
41310;DHT22;27057;51.438;-0.010;2022-10-28T06:20:30;16.60;99.90
41310;DHT22;27057;51.438;-0.010;2022-10-28T06:22:58;16.80;99.90
41310;DHT22;27057;51.438;-0.010;2022-10-28T06:25:26;16.50;99.90
41310;DHT22;27057;51.438;-0.010;2022-10-28T06:30:22;16.80;99.90
41310;DHT22;27057;51.438;-0.010;2022-10-28T06:37:45;16.80;99.90
41310;DHT22;27057;51.438;-0.010;2022-10-28T06:40:13;16.80;99.90
41310;DHT22;27057;51.438;-0.010;2022-10-28T06:42:40;16.80;99.90
41310;DHT22;27057;51.438;-0.010;2022-10-28T06:45:08;16.80;99.90
41310;DHT22;27057;51.438;-0.010;2022-10-28T06:47:35;16.80;99.90
41310;DHT22;27057;51.438;-0.010;2022-10-28T06:50:07;16.80;99.90
41310;DHT22;27057;51.438;-0.010;2022-10-28T06:52:35;16.80;99.90
41310;DHT22;27057;51.438;-0.010;2022-10-28T06:55:03;16.80;99.90
41310;DHT22;27057;51.438;-0.010;2022-10-28T06:57:30;16.80;99.90
41310;DHT22;27057;51.438;-0.010;2022-10-28T06:59:57;16.80;99.90
41310;DHT22;27057;51.438;-0.010;2022-10-28T07:04:52;16.60;99.90
41310;DHT22;27057;51.438;-0.010;2022-10-28T07:12:15;17.10;99.90
41310;DHT22;27057;51.438;-0.010;2022-10-28T07:36:54;17.00;99.90
41310;DHT22;27057;51.438;-0.010;2022-10-28T07:49:12;17.60;99.90
41310;DHT22;27057;51.438;-0.010;2022-10-28T07:54:07;17.40;99.90
41310;DHT22;27057;51.438;-0.010;2022-10-28T08:01:29;17.10;99.90
41310;DHT22;27057;51.438;-0.010;2022-10-28T08:03:57;17.50;99.90
41310;DHT22;27057;51.438;-0.010;2022-10-28T08:08:54;17.40;99.90
41310;DHT22;27057;51.438;-0.010;2022-10-28T08:11:23;18.10;99.90
41310;DHT22;27057;51.438;-0.010;2022-10-28T08:13:51;17.70;99.90
41310;DHT22;27057;51.438;-0.010;2022-10-28T08:16:19;17.50;99.90
41310;DHT22;27057;51.438;-0.010;2022-10-28T08:18:46;17.50;99.90
41310;DHT22;27057;51.438;-0.010;2022-10-28T08:23:42;17.90;99.90
41310;DHT22;27057;51.438;-0.010;2022-10-28T08:26:15;17.90;99.90
41310;DHT22;27057;51.438;-0.010;2022-10-28T08:28:42;17.90;99.90
41310;DHT22;27057;51.438;-0.010;2022-10-28T08:33:42;17.70;99.90
41310;DHT22;27057;51.438;-0.010;2022-10-28T08:36:13;18.10;99.90
41310;DHT22;27057;51.438;-0.010;2022-10-28T08:38:45;18.30;99.90
41310;DHT22;27057;51.438;-0.010;2022-10-28T08:49:43;18.10;99.90
41310;DHT22;27057;51.438;-0.010;2022-10-28T08:52:22;18.10;99.90
41310;DHT22;27057;51.438;-0.010;2022-10-28T08:55:05;18.10;99.90
41310;DHT22;27057;51.438;-0.010;2022-10-28T08:57:38;18.10;99.90
41310;DHT22;27057;51.438;-0.010;2022-10-28T09:00:28;18.00;99.90
41310;DHT22;27057;51.438;-0.010;2022-10-28T09:05:41;18.20;99.90
41310;DHT22;27057;51.438;-0.010;2022-10-28T09:08:30;18.10;99.90
41310;DHT22;27057;51.438;-0.010;2022-10-28T09:11:07;18.60;99.90
41310;DHT22;27057;51.438;-0.010;2022-10-28T09:13:50;18.20;99.90
41310;DHT22;27057;51.438;-0.010;2022-10-28T09:22:32;18.30;99.90
41310;DHT22;27057;51.438;-0.010;2022-10-28T09:36:03;18.90;99.90
41310;DHT22;27057;51.438;-0.010;2022-10-28T09:38:36;18.50;99.90
41310;DHT22;27057;51.438;-0.010;2022-10-28T09:41:32;18.60;99.90
41310;DHT22;27057;51.438;-0.010;2022-10-28T09:44:17;18.60;99.90
41310;DHT22;27057;51.438;-0.010;2022-10-28T09:46:49;18.70;99.90
41310;DHT22;27057;51.438;-0.010;2022-10-28T09:49:21;18.70;99.90
41310;DHT22;27057;51.438;-0.010;2022-10-28T09:52:10;18.70;99.90
41310;DHT22;27057;51.438;-0.010;2022-10-28T09:54:47;18.60;99.90
41310;DHT22;27057;51.438;-0.010;2022-10-28T09:57:15;18.70;99.90
41310;DHT22;27057;51.438;-0.010;2022-10-28T09:59:44;18.70;99.90
41310;DHT22;27057;51.438;-0.010;2022-10-28T10:02:29;18.60;99.90
41310;DHT22;27057;51.438;-0.010;2022-10-28T10:05:00;18.70;99.90
41310;DHT22;27057;51.438;-0.010;2022-10-28T10:07:32;18.60;99.90
41310;DHT22;27057;51.438;-0.010;2022-10-28T10:10:05;18.70;99.90
41310;DHT22;27057;51.438;-0.010;2022-10-28T10:12:37;18.20;99.90
41310;DHT22;27057;51.438;-0.010;2022-10-28T10:15:06;18.70;99.90
41310;DHT22;27057;51.438;-0.010;2022-10-28T10:17:45;18.10;99.90
41310;DHT22;27057;51.438;-0.010;2022-10-28T10:20:18;18.60;99.90
41310;DHT22;27057;51.438;-0.010;2022-10-28T10:22:47;18.40;99.90
41310;DHT22;27057;51.438;-0.010;2022-10-28T10:27:58;18.40;99.90
41310;DHT22;27057;51.438;-0.010;2022-10-28T10:35:25;18.30;99.90
41310;DHT22;27057;51.438;-0.010;2022-10-28T10:37:56;18.20;99.90
41310;DHT22;27057;51.438;-0.010;2022-10-28T10:48:38;18.20;99.90
41310;DHT22;27057;51.438;-0.010;2022-10-28T10:51:08;18.40;99.90
41310;DHT22;27057;51.438;-0.010;2022-10-28T10:53:38;18.40;99.90
41310;DHT22;27057;51.438;-0.010;2022-10-28T10:56:08;18.50;99.90
41310;DHT22;27057;51.438;-0.010;2022-10-28T10:58:39;18.50;99.90
41310;DHT22;27057;51.438;-0.010;2022-10-28T11:01:07;18.80;99.90
41310;DHT22;27057;51.438;-0.010;2022-10-28T11:04:02;19.40;99.90
41310;DHT22;27057;51.438;-0.010;2022-10-28T11:06:39;19.70;99.90
41310;DHT22;27057;51.438;-0.010;2022-10-28T11:09:20;19.50;99.90
41310;DHT22;27057;51.438;-0.010;2022-10-28T11:11:52;19.90;99.90
41310;DHT22;27057;51.438;-0.010;2022-10-28T11:14:23;19.70;99.90
41310;DHT22;27057;51.438;-0.010;2022-10-28T11:16:53;20.20;99.90
41310;DHT22;27057;51.438;-0.010;2022-10-28T11:19:31;20.60;99.90
41310;DHT22;27057;51.438;-0.010;2022-10-28T11:27:24;20.20;99.90
41310;DHT22;27057;51.438;-0.010;2022-10-28T11:43:58;21.00;99.90
41310;DHT22;27057;51.438;-0.010;2022-10-28T11:53:03;21.30;99.90
41310;DHT22;27057;51.438;-0.010;2022-10-28T11:55:59;21.30;99.90
41310;DHT22;27057;51.438;-0.010;2022-10-28T11:58:46;21.30;99.90
41310;DHT22;27057;51.438;-0.010;2022-10-28T12:16:46;20.00;99.90
41310;DHT22;27057;51.438;-0.010;2022-10-28T12:21:36;20.20;99.90
41310;DHT22;27057;51.438;-0.010;2022-10-28T12:24:15;20.50;99.90
41310;DHT22;27057;51.438;-0.010;2022-10-28T12:26:53;20.10;99.90
41310;DHT22;27057;51.438;-0.010;2022-10-28T12:29:31;20.30;99.90
41310;DHT22;27057;51.438;-0.010;2022-10-28T12:32:04;20.30;99.90
41310;DHT22;27057;51.438;-0.010;2022-10-28T12:34:36;20.60;99.90
41310;DHT22;27057;51.438;-0.010;2022-10-28T12:37:24;20.50;99.90
41310;DHT22;27057;51.438;-0.010;2022-10-28T12:39:59;20.70;99.90
41310;DHT22;27057;51.438;-0.010;2022-10-28T12:42:31;20.90;99.90
41310;DHT22;27057;51.438;-0.010;2022-10-28T12:45:03;20.80;99.90
41310;DHT22;27057;51.438;-0.010;2022-10-28T12:47:42;20.60;99.90
41310;DHT22;27057;51.438;-0.010;2022-10-28T12:52:57;20.00;99.90
41310;DHT22;27057;51.438;-0.010;2022-10-28T13:00:39;19.80;99.90
41310;DHT22;27057;51.438;-0.010;2022-10-28T13:03:13;20.50;99.90
41310;DHT22;27057;51.438;-0.010;2022-10-28T13:11:32;20.40;99.90
41310;DHT22;27057;51.438;-0.010;2022-10-28T13:17:08;20.50;99.90
41310;DHT22;27057;51.438;-0.010;2022-10-28T13:27:56;19.90;99.90
41310;DHT22;27057;51.438;-0.010;2022-10-28T13:30:24;20.10;99.90
41310;DHT22;27057;51.438;-0.010;2022-10-28T13:33:15;20.10;99.90
41310;DHT22;27057;51.438;-0.010;2022-10-28T13:35:44;20.10;99.90
41310;DHT22;27057;51.438;-0.010;2022-10-28T13:38:22;20.20;99.90
41310;DHT22;27057;51.438;-0.010;2022-10-28T13:49:26;20.30;99.90
41310;DHT22;27057;51.438;-0.010;2022-10-28T13:52:22;20.20;99.90
41310;DHT22;27057;51.438;-0.010;2022-10-28T13:57:37;20.30;99.90
41310;DHT22;27057;51.438;-0.010;2022-10-28T14:07:57;20.90;99.90
41310;DHT22;27057;51.438;-0.010;2022-10-28T14:10:27;21.20;99.90
41310;DHT22;27057;51.438;-0.010;2022-10-28T14:13:16;21.20;99.90
41310;DHT22;27057;51.438;-0.010;2022-10-28T14:15:45;21.00;99.90
41310;DHT22;27057;51.438;-0.010;2022-10-28T14:18:19;21.40;99.90
41310;DHT22;27057;51.438;-0.010;2022-10-28T14:21:09;21.50;99.90
41310;DHT22;27057;51.438;-0.010;2022-10-28T14:26:09;22.00;99.90
41310;DHT22;27057;51.438;-0.010;2022-10-28T14:39:15;22.90;99.90
41310;DHT22;27057;51.438;-0.010;2022-10-28T14:45:16;23.20;99.90
41310;DHT22;27057;51.438;-0.010;2022-10-28T14:51:01;22.90;99.90
41310;DHT22;27057;51.438;-0.010;2022-10-28T14:53:32;22.40;99.90
41310;DHT22;27057;51.438;-0.010;2022-10-28T14:56:06;22.10;99.90
41310;DHT22;27057;51.438;-0.010;2022-10-28T14:58:40;21.90;99.90
41310;DHT22;27057;51.438;-0.010;2022-10-28T15:04:03;21.80;99.90
41310;DHT22;27057;51.438;-0.010;2022-10-28T15:09:29;21.40;99.90
41310;DHT22;27057;51.438;-0.010;2022-10-28T15:11:57;21.00;99.90
41310;DHT22;27057;51.438;-0.010;2022-10-28T15:14:36;20.90;99.90
41310;DHT22;27057;51.438;-0.010;2022-10-28T15:19:38;21.00;99.90
41310;DHT22;27057;51.438;-0.010;2022-10-28T15:22:22;21.40;99.90
41310;DHT22;27057;51.438;-0.010;2022-10-28T15:25:06;22.00;99.90
41310;DHT22;27057;51.438;-0.010;2022-10-28T15:27:38;22.50;99.90
41310;DHT22;27057;51.438;-0.010;2022-10-28T15:30:23;22.90;99.90
41310;DHT22;27057;51.438;-0.010;2022-10-28T15:32:54;22.90;99.90
41310;DHT22;27057;51.438;-0.010;2022-10-28T15:40:54;23.70;99.90
41310;DHT22;27057;51.438;-0.010;2022-10-28T15:43:25;24.10;99.90
41310;DHT22;27057;51.438;-0.010;2022-10-28T15:45:53;23.80;99.90
41310;DHT22;27057;51.438;-0.010;2022-10-28T15:48:23;23.70;99.90
41310;DHT22;27057;51.438;-0.010;2022-10-28T15:53:42;23.30;99.90
41310;DHT22;27057;51.438;-0.010;2022-10-28T15:58:45;23.40;99.90
41310;DHT22;27057;51.438;-0.010;2022-10-28T16:01:34;23.40;99.90
41310;DHT22;27057;51.438;-0.010;2022-10-28T16:06:53;22.80;99.90
41310;DHT22;27057;51.438;-0.010;2022-10-28T16:09:30;22.70;99.90
41310;DHT22;27057;51.438;-0.010;2022-10-28T16:12:04;22.10;99.90
41310;DHT22;27057;51.438;-0.010;2022-10-28T16:14:40;22.20;99.90
41310;DHT22;27057;51.438;-0.010;2022-10-28T16:17:17;21.80;99.90
41310;DHT22;27057;51.438;-0.010;2022-10-28T16:22:16;20.60;99.90
41310;DHT22;27057;51.438;-0.010;2022-10-28T16:27:20;19.90;99.90
41310;DHT22;27057;51.438;-0.010;2022-10-28T16:32:19;19.10;99.90
41310;DHT22;27057;51.438;-0.010;2022-10-28T16:34:47;19.00;99.90
41310;DHT22;27057;51.438;-0.010;2022-10-28T16:37:24;18.80;99.90
41310;DHT22;27057;51.438;-0.010;2022-10-28T16:39:52;18.60;99.90
41310;DHT22;27057;51.438;-0.010;2022-10-28T16:42:21;17.90;99.90
41310;DHT22;27057;51.438;-0.010;2022-10-28T16:44:49;18.00;99.90
41310;DHT22;27057;51.438;-0.010;2022-10-28T16:47:18;18.60;99.90
41310;DHT22;27057;51.438;-0.010;2022-10-28T16:49:46;17.80;99.90
41310;DHT22;27057;51.438;-0.010;2022-10-28T16:52:24;17.80;99.90
41310;DHT22;27057;51.438;-0.010;2022-10-28T16:54:52;17.90;99.90
41310;DHT22;27057;51.438;-0.010;2022-10-28T16:59:53;17.50;99.90
41310;DHT22;27057;51.438;-0.010;2022-10-28T17:02:32;17.40;99.90
41310;DHT22;27057;51.438;-0.010;2022-10-28T17:29:42;16.50;99.90
41310;DHT22;27057;51.438;-0.010;2022-10-28T17:37:05;16.60;99.90
41310;DHT22;27057;51.438;-0.010;2022-10-28T17:42:02;16.40;99.90
41310;DHT22;27057;51.438;-0.010;2022-10-28T17:44:29;16.40;99.90
41310;DHT22;27057;51.438;-0.010;2022-10-28T17:46:56;16.20;99.90
41310;DHT22;27057;51.438;-0.010;2022-10-28T17:49:24;16.00;99.90
41310;DHT22;27057;51.438;-0.010;2022-10-28T17:51:52;15.90;99.90
41310;DHT22;27057;51.438;-0.010;2022-10-28T17:56:47;16.10;99.90
41310;DHT22;27057;51.438;-0.010;2022-10-28T17:59:15;16.00;99.90
41310;DHT22;27057;51.438;-0.010;2022-10-28T18:01:42;16.20;99.90
41310;DHT22;27057;51.438;-0.010;2022-10-28T18:09:10;15.30;99.90
41310;DHT22;27057;51.438;-0.010;2022-10-28T18:11:37;15.80;99.90
41310;DHT22;27057;51.438;-0.010;2022-10-28T18:14:06;15.60;99.90
41310;DHT22;27057;51.438;-0.010;2022-10-28T18:16:35;15.50;99.90
41310;DHT22;27057;51.438;-0.010;2022-10-28T18:19:04;15.50;99.90
41310;DHT22;27057;51.438;-0.010;2022-10-28T18:26:33;15.30;99.90
41310;DHT22;27057;51.438;-0.010;2022-10-28T18:34:00;15.20;99.90
41310;DHT22;27057;51.438;-0.010;2022-10-28T18:36:30;15.40;99.90
41310;DHT22;27057;51.438;-0.010;2022-10-28T18:39:03;15.00;99.90
41310;DHT22;27057;51.438;-0.010;2022-10-28T18:41:33;15.30;99.90
41310;DHT22;27057;51.438;-0.010;2022-10-28T18:44:05;15.00;99.90
41310;DHT22;27057;51.438;-0.010;2022-10-28T18:46:34;15.00;99.90
41310;DHT22;27057;51.438;-0.010;2022-10-28T18:49:02;15.10;99.90
41310;DHT22;27057;51.438;-0.010;2022-10-28T18:51:35;14.90;99.90
41310;DHT22;27057;51.438;-0.010;2022-10-28T18:54:03;14.90;99.90
41310;DHT22;27057;51.438;-0.010;2022-10-28T18:56:32;14.80;99.90
41310;DHT22;27057;51.438;-0.010;2022-10-28T18:59:21;14.80;99.90
41310;DHT22;27057;51.438;-0.010;2022-10-28T19:29:08;14.30;99.90
41310;DHT22;27057;51.438;-0.010;2022-10-28T19:31:36;14.00;99.90
41310;DHT22;27057;51.438;-0.010;2022-10-28T19:34:05;14.30;99.90
41310;DHT22;27057;51.438;-0.010;2022-10-28T19:36:32;14.30;99.90
41310;DHT22;27057;51.438;-0.010;2022-10-28T19:39:02;14.20;99.90
41310;DHT22;27057;51.438;-0.010;2022-10-28T19:41:29;13.90;99.90
41310;DHT22;27057;51.438;-0.010;2022-10-28T19:44:01;14.10;99.90
41310;DHT22;27057;51.438;-0.010;2022-10-28T19:46:33;13.80;99.90
41310;DHT22;27057;51.438;-0.010;2022-10-28T19:49:03;13.80;99.90
41310;DHT22;27057;51.438;-0.010;2022-10-28T19:51:37;14.20;99.90
41310;DHT22;27057;51.438;-0.010;2022-10-28T19:54:08;14.60;99.90
41310;DHT22;27057;51.438;-0.010;2022-10-28T19:56:37;14.30;99.90
41310;DHT22;27057;51.438;-0.010;2022-10-28T19:59:05;14.50;99.90
41310;DHT22;27057;51.438;-0.010;2022-10-28T20:01:35;14.00;99.90
41310;DHT22;27057;51.438;-0.010;2022-10-28T20:04:14;13.70;99.90
41310;DHT22;27057;51.438;-0.010;2022-10-28T20:06:43;14.00;99.90
41310;DHT22;27057;51.438;-0.010;2022-10-28T20:14:08;13.90;99.90
41310;DHT22;27057;51.438;-0.010;2022-10-28T20:16:39;14.20;99.90
41310;DHT22;27057;51.438;-0.010;2022-10-28T20:19:12;14.20;99.90
41310;DHT22;27057;51.438;-0.010;2022-10-28T20:21:40;13.80;99.90
41310;DHT22;27057;51.438;-0.010;2022-10-28T20:26:37;13.80;99.90
41310;DHT22;27057;51.438;-0.010;2022-10-28T20:34:05;13.90;99.90
41310;DHT22;27057;51.438;-0.010;2022-10-28T20:36:38;13.80;99.90
41310;DHT22;27057;51.438;-0.010;2022-10-28T20:39:17;13.80;99.90
41310;DHT22;27057;51.438;-0.010;2022-10-28T20:41:46;13.90;99.90
41310;DHT22;27057;51.438;-0.010;2022-10-28T20:46:42;13.90;99.90
41310;DHT22;27057;51.438;-0.010;2022-10-28T20:49:11;13.90;99.90
41310;DHT22;27057;51.438;-0.010;2022-10-28T21:01:37;14.00;99.90
41310;DHT22;27057;51.438;-0.010;2022-10-28T21:04:08;14.00;99.90
41310;DHT22;27057;51.438;-0.010;2022-10-28T21:19:01;14.20;99.90
41310;DHT22;27057;51.438;-0.010;2022-10-28T21:26:24;13.90;99.90
41310;DHT22;27057;51.438;-0.010;2022-10-28T21:31:23;13.90;99.90
41310;DHT22;27057;51.438;-0.010;2022-10-28T21:33:50;14.30;99.90
41310;DHT22;27057;51.438;-0.010;2022-10-28T21:36:19;13.80;99.90
41310;DHT22;27057;51.438;-0.010;2022-10-28T21:38:47;13.80;99.90
41310;DHT22;27057;51.438;-0.010;2022-10-28T21:41:19;13.90;99.90
41310;DHT22;27057;51.438;-0.010;2022-10-28T21:43:48;13.80;99.90
41310;DHT22;27057;51.438;-0.010;2022-10-28T21:46:17;14.20;99.90
41310;DHT22;27057;51.438;-0.010;2022-10-28T21:48:45;13.90;99.90
41310;DHT22;27057;51.438;-0.010;2022-10-28T21:51:13;14.20;99.90
41310;DHT22;27057;51.438;-0.010;2022-10-28T21:53:43;13.80;99.90
41310;DHT22;27057;51.438;-0.010;2022-10-28T21:56:13;14.00;99.90
41310;DHT22;27057;51.438;-0.010;2022-10-28T21:58:46;13.80;99.90
41310;DHT22;27057;51.438;-0.010;2022-10-28T22:01:16;13.80;99.90
41310;DHT22;27057;51.438;-0.010;2022-10-28T22:03:44;13.90;99.90
41310;DHT22;27057;51.438;-0.010;2022-10-28T22:06:12;13.90;99.90
41310;DHT22;27057;51.438;-0.010;2022-10-28T22:11:13;13.90;99.90
41310;DHT22;27057;51.438;-0.010;2022-10-28T22:13:41;13.90;99.90
41310;DHT22;27057;51.438;-0.010;2022-10-28T22:16:15;14.00;99.90
41310;DHT22;27057;51.438;-0.010;2022-10-28T22:18:43;14.10;99.90
41310;DHT22;27057;51.438;-0.010;2022-10-28T22:21:14;13.80;99.90
41310;DHT22;27057;51.438;-0.010;2022-10-28T22:23:51;13.80;99.90
41310;DHT22;27057;51.438;-0.010;2022-10-28T22:26:24;13.80;99.90
41310;DHT22;27057;51.438;-0.010;2022-10-28T22:28:51;13.70;99.90
41310;DHT22;27057;51.438;-0.010;2022-10-28T22:31:24;13.80;99.90
41310;DHT22;27057;51.438;-0.010;2022-10-28T22:33:52;13.80;99.90
41310;DHT22;27057;51.438;-0.010;2022-10-28T22:36:21;14.00;99.90
41310;DHT22;27057;51.438;-0.010;2022-10-28T22:38:49;14.30;99.90
41310;DHT22;27057;51.438;-0.010;2022-10-28T22:43:52;14.00;99.90
41310;DHT22;27057;51.438;-0.010;2022-10-28T22:46:20;14.00;99.90
41310;DHT22;27057;51.438;-0.010;2022-10-28T22:51:16;13.70;99.90
41310;DHT22;27057;51.438;-0.010;2022-10-28T22:56:14;14.20;99.90
41310;DHT22;27057;51.438;-0.010;2022-10-28T22:58:45;13.90;99.90
41310;DHT22;27057;51.438;-0.010;2022-10-28T23:01:14;14.20;99.90
41310;DHT22;27057;51.438;-0.010;2022-10-28T23:03:47;13.90;99.90
41310;DHT22;27057;51.438;-0.010;2022-10-28T23:06:24;14.10;99.90
41310;DHT22;27057;51.438;-0.010;2022-10-28T23:13:52;13.90;99.90
41310;DHT22;27057;51.438;-0.010;2022-10-28T23:16:21;13.50;99.90
41310;DHT22;27057;51.438;-0.010;2022-10-28T23:18:49;13.50;99.90
41310;DHT22;27057;51.438;-0.010;2022-10-28T23:21:36;13.60;99.90
41310;DHT22;27057;51.438;-0.010;2022-10-28T23:26:33;13.40;99.90
41310;DHT22;27057;51.438;-0.010;2022-10-28T23:31:30;13.50;99.90
41310;DHT22;27057;51.438;-0.010;2022-10-28T23:33:58;13.70;99.90
41310;DHT22;27057;51.438;-0.010;2022-10-28T23:38:55;13.20;99.90
41310;DHT22;27057;51.438;-0.010;2022-10-28T23:41:23;13.60;99.90
41310;DHT22;27057;51.438;-0.010;2022-10-28T23:43:50;13.40;99.90
41310;DHT22;27057;51.438;-0.010;2022-10-28T23:46:18;13.40;99.90
41310;DHT22;27057;51.438;-0.010;2022-10-28T23:48:47;13.70;99.90
41310;DHT22;27057;51.438;-0.010;2022-10-28T23:53:42;13.70;99.90
41310;DHT22;27057;51.438;-0.010;2022-10-28T23:56:10;13.20;99.90
41310;DHT22;27057;51.438;-0.010;2022-10-28T23:58:37;13.20;99.90
